sensor_id;sensor_type;location;lat;lon;timestamp;P1;durP1;ratioP1;P2;durP2;ratioP2
82635;SDS011;72317;37.280;-121.948;2023-12-07T00:01:17;1.75;;;0.90;;
82635;SDS011;72317;37.280;-121.948;2023-12-07T00:03:43;1.42;;;0.85;;
82635;SDS011;72317;37.280;-121.948;2023-12-07T00:06:09;2.95;;;0.90;;
82635;SDS011;72317;37.280;-121.948;2023-12-07T00:08:35;3.00;;;1.00;;
82635;SDS011;72317;37.280;-121.948;2023-12-07T00:11:01;1.30;;;0.50;;
82635;SDS011;72317;37.280;-121.948;2023-12-07T00:13:27;0.90;;;0.55;;
82635;SDS011;72317;37.280;-121.948;2023-12-07T00:15:53;0.68;;;0.50;;
82635;SDS011;72317;37.280;-121.948;2023-12-07T00:18:20;0.60;;;0.52;;
82635;SDS011;72317;37.280;-121.948;2023-12-07T00:20:46;0.65;;;0.40;;
82635;SDS011;72317;37.280;-121.948;2023-12-07T00:23:12;1.02;;;0.43;;
82635;SDS011;72317;37.280;-121.948;2023-12-07T00:25:38;0.82;;;0.40;;
82635;SDS011;72317;37.280;-121.948;2023-12-07T00:28:04;0.30;;;0.30;;
82635;SDS011;72317;37.280;-121.948;2023-12-07T00:30:30;0.15;;;0.10;;
82635;SDS011;72317;37.280;-121.948;2023-12-07T00:32:57;0.45;;;0.40;;
82635;SDS011;72317;37.280;-121.948;2023-12-07T00:35:23;0.65;;;0.40;;
82635;SDS011;72317;37.280;-121.948;2023-12-07T00:37:49;1.10;;;0.60;;
82635;SDS011;72317;37.280;-121.948;2023-12-07T00:40:16;0.40;;;0.40;;
82635;SDS011;72317;37.280;-121.948;2023-12-07T00:42:42;0.32;;;0.28;;
82635;SDS011;72317;37.280;-121.948;2023-12-07T00:45:08;0.68;;;0.20;;
82635;SDS011;72317;37.280;-121.948;2023-12-07T00:47:37;0.40;;;0.25;;
82635;SDS011;72317;37.280;-121.948;2023-12-07T00:50:03;0.82;;;0.30;;
82635;SDS011;72317;37.280;-121.948;2023-12-07T00:52:31;0.47;;;0.32;;
82635;SDS011;72317;37.280;-121.948;2023-12-07T00:54:58;0.40;;;0.40;;
82635;SDS011;72317;37.280;-121.948;2023-12-07T00:57:25;0.25;;;0.25;;
82635;SDS011;72317;37.280;-121.948;2023-12-07T00:59:52;0.52;;;0.38;;
82635;SDS011;72317;37.280;-121.948;2023-12-07T01:02:19;0.40;;;0.30;;
82635;SDS011;72317;37.280;-121.948;2023-12-07T01:04:46;0.52;;;0.40;;
82635;SDS011;72317;37.280;-121.948;2023-12-07T01:07:13;0.70;;;0.50;;
82635;SDS011;72317;37.280;-121.948;2023-12-07T01:09:40;0.95;;;0.45;;
82635;SDS011;72317;37.280;-121.948;2023-12-07T01:12:07;1.23;;;0.57;;
82635;SDS011;72317;37.280;-121.948;2023-12-07T01:14:34;0.95;;;0.50;;
82635;SDS011;72317;37.280;-121.948;2023-12-07T01:17:01;1.00;;;0.50;;
82635;SDS011;72317;37.280;-121.948;2023-12-07T01:19:30;1.30;;;0.50;;
82635;SDS011;72317;37.280;-121.948;2023-12-07T01:21:57;1.70;;;0.70;;
82635;SDS011;72317;37.280;-121.948;2023-12-07T01:24:24;1.92;;;0.50;;
82635;SDS011;72317;37.280;-121.948;2023-12-07T01:26:51;0.73;;;0.60;;
82635;SDS011;72317;37.280;-121.948;2023-12-07T01:29:19;1.52;;;0.55;;
82635;SDS011;72317;37.280;-121.948;2023-12-07T01:31:45;0.70;;;0.50;;
82635;SDS011;72317;37.280;-121.948;2023-12-07T01:34:12;0.40;;;0.40;;
82635;SDS011;72317;37.280;-121.948;2023-12-07T01:36:38;3.15;;;0.60;;
82635;SDS011;72317;37.280;-121.948;2023-12-07T01:39:05;1.15;;;0.68;;
82635;SDS011;72317;37.280;-121.948;2023-12-07T01:41:33;1.00;;;0.70;;
82635;SDS011;72317;37.280;-121.948;2023-12-07T01:44:00;2.70;;;1.30;;
82635;SDS011;72317;37.280;-121.948;2023-12-07T01:46:27;1.40;;;0.90;;
82635;SDS011;72317;37.280;-121.948;2023-12-07T01:48:53;2.03;;;1.00;;
82635;SDS011;72317;37.280;-121.948;2023-12-07T01:51:20;1.58;;;1.08;;
82635;SDS011;72317;37.280;-121.948;2023-12-07T01:53:47;2.30;;;0.98;;
82635;SDS011;72317;37.280;-121.948;2023-12-07T01:56:15;3.90;;;1.10;;
82635;SDS011;72317;37.280;-121.948;2023-12-07T01:58:42;1.80;;;1.00;;
82635;SDS011;72317;37.280;-121.948;2023-12-07T02:01:10;1.92;;;1.13;;
82635;SDS011;72317;37.280;-121.948;2023-12-07T02:03:40;2.88;;;1.00;;
82635;SDS011;72317;37.280;-121.948;2023-12-07T02:06:07;1.92;;;0.88;;
82635;SDS011;72317;37.280;-121.948;2023-12-07T02:08:36;2.55;;;1.10;;
82635;SDS011;72317;37.280;-121.948;2023-12-07T02:11:09;1.73;;;0.98;;
82635;SDS011;72317;37.280;-121.948;2023-12-07T02:13:36;5.63;;;1.20;;
82635;SDS011;72317;37.280;-121.948;2023-12-07T02:16:06;2.83;;;0.90;;
82635;SDS011;72317;37.280;-121.948;2023-12-07T02:18:42;4.63;;;1.40;;
82635;SDS011;72317;37.280;-121.948;2023-12-07T02:21:30;4.60;;;1.20;;
82635;SDS011;72317;37.280;-121.948;2023-12-07T02:24:00;2.70;;;1.20;;
82635;SDS011;72317;37.280;-121.948;2023-12-07T02:26:37;2.88;;;1.23;;
82635;SDS011;72317;37.280;-121.948;2023-12-07T02:29:04;7.30;;;1.30;;
82635;SDS011;72317;37.280;-121.948;2023-12-07T02:31:30;5.03;;;1.30;;
82635;SDS011;72317;37.280;-121.948;2023-12-07T02:33:57;6.05;;;1.55;;
82635;SDS011;72317;37.280;-121.948;2023-12-07T02:36:24;7.50;;;1.38;;
82635;SDS011;72317;37.280;-121.948;2023-12-07T02:38:56;6.03;;;1.83;;
82635;SDS011;72317;37.280;-121.948;2023-12-07T02:41:23;5.97;;;1.60;;
82635;SDS011;72317;37.280;-121.948;2023-12-07T02:43:51;8.15;;;2.20;;
82635;SDS011;72317;37.280;-121.948;2023-12-07T02:46:17;10.27;;;2.20;;
82635;SDS011;72317;37.280;-121.948;2023-12-07T02:48:44;7.20;;;2.15;;
82635;SDS011;72317;37.280;-121.948;2023-12-07T02:51:10;5.82;;;1.63;;
82635;SDS011;72317;37.280;-121.948;2023-12-07T02:53:36;5.93;;;1.70;;
82635;SDS011;72317;37.280;-121.948;2023-12-07T02:56:03;5.88;;;1.50;;
82635;SDS011;72317;37.280;-121.948;2023-12-07T02:58:29;5.63;;;1.50;;
82635;SDS011;72317;37.280;-121.948;2023-12-07T03:00:55;6.43;;;1.70;;
82635;SDS011;72317;37.280;-121.948;2023-12-07T03:03:22;10.25;;;2.10;;
82635;SDS011;72317;37.280;-121.948;2023-12-07T03:05:48;4.82;;;1.40;;
82635;SDS011;72317;37.280;-121.948;2023-12-07T03:08:14;6.43;;;1.63;;
82635;SDS011;72317;37.280;-121.948;2023-12-07T03:10:40;6.47;;;1.90;;
82635;SDS011;72317;37.280;-121.948;2023-12-07T03:13:07;8.10;;;1.83;;
82635;SDS011;72317;37.280;-121.948;2023-12-07T03:15:33;5.80;;;1.60;;
82635;SDS011;72317;37.280;-121.948;2023-12-07T03:17:59;5.35;;;1.50;;
82635;SDS011;72317;37.280;-121.948;2023-12-07T03:20:25;8.90;;;1.73;;
82635;SDS011;72317;37.280;-121.948;2023-12-07T03:22:52;5.90;;;1.60;;
82635;SDS011;72317;37.280;-121.948;2023-12-07T03:25:19;5.30;;;1.60;;
82635;SDS011;72317;37.280;-121.948;2023-12-07T03:27:45;6.80;;;1.67;;
82635;SDS011;72317;37.280;-121.948;2023-12-07T03:30:12;6.80;;;1.90;;
82635;SDS011;72317;37.280;-121.948;2023-12-07T03:32:38;3.53;;;1.50;;
82635;SDS011;72317;37.280;-121.948;2023-12-07T03:35:05;7.32;;;1.75;;
82635;SDS011;72317;37.280;-121.948;2023-12-07T03:37:34;7.82;;;1.85;;
82635;SDS011;72317;37.280;-121.948;2023-12-07T03:40:00;6.60;;;1.65;;
82635;SDS011;72317;37.280;-121.948;2023-12-07T03:42:26;5.15;;;1.90;;
82635;SDS011;72317;37.280;-121.948;2023-12-07T03:44:52;8.52;;;1.90;;
82635;SDS011;72317;37.280;-121.948;2023-12-07T03:47:19;5.70;;;1.95;;
82635;SDS011;72317;37.280;-121.948;2023-12-07T03:49:45;7.05;;;2.00;;
82635;SDS011;72317;37.280;-121.948;2023-12-07T03:52:11;8.50;;;2.22;;
82635;SDS011;72317;37.280;-121.948;2023-12-07T03:54:37;10.07;;;2.13;;
82635;SDS011;72317;37.280;-121.948;2023-12-07T03:57:04;7.03;;;2.33;;
82635;SDS011;72317;37.280;-121.948;2023-12-07T03:59:30;10.18;;;2.50;;
82635;SDS011;72317;37.280;-121.948;2023-12-07T04:01:56;7.72;;;2.22;;
82635;SDS011;72317;37.280;-121.948;2023-12-07T04:04:22;9.05;;;2.17;;
82635;SDS011;72317;37.280;-121.948;2023-12-07T04:06:48;9.70;;;2.22;;
82635;SDS011;72317;37.280;-121.948;2023-12-07T04:09:14;6.50;;;2.17;;
82635;SDS011;72317;37.280;-121.948;2023-12-07T04:11:40;10.90;;;3.25;;
82635;SDS011;72317;37.280;-121.948;2023-12-07T04:14:06;6.70;;;2.85;;
82635;SDS011;72317;37.280;-121.948;2023-12-07T04:16:33;9.02;;;2.75;;
82635;SDS011;72317;37.280;-121.948;2023-12-07T04:18:59;6.25;;;3.00;;
82635;SDS011;72317;37.280;-121.948;2023-12-07T04:21:25;7.53;;;2.60;;
82635;SDS011;72317;37.280;-121.948;2023-12-07T04:23:51;7.68;;;2.55;;
82635;SDS011;72317;37.280;-121.948;2023-12-07T04:26:17;7.82;;;2.63;;
82635;SDS011;72317;37.280;-121.948;2023-12-07T04:28:43;7.95;;;2.35;;
82635;SDS011;72317;37.280;-121.948;2023-12-07T04:31:09;5.70;;;2.78;;
82635;SDS011;72317;37.280;-121.948;2023-12-07T04:33:36;6.63;;;3.10;;
82635;SDS011;72317;37.280;-121.948;2023-12-07T04:36:03;7.97;;;2.60;;
82635;SDS011;72317;37.280;-121.948;2023-12-07T04:38:30;4.22;;;2.40;;
82635;SDS011;72317;37.280;-121.948;2023-12-07T04:40:57;6.07;;;2.30;;
82635;SDS011;72317;37.280;-121.948;2023-12-07T04:43:24;5.22;;;2.22;;
82635;SDS011;72317;37.280;-121.948;2023-12-07T04:45:51;3.55;;;2.20;;
82635;SDS011;72317;37.280;-121.948;2023-12-07T04:48:17;5.60;;;2.42;;
82635;SDS011;72317;37.280;-121.948;2023-12-07T04:50:44;6.28;;;2.50;;
82635;SDS011;72317;37.280;-121.948;2023-12-07T04:53:10;6.03;;;2.88;;
82635;SDS011;72317;37.280;-121.948;2023-12-07T04:55:36;6.65;;;2.72;;
82635;SDS011;72317;37.280;-121.948;2023-12-07T04:58:02;6.40;;;2.83;;
82635;SDS011;72317;37.280;-121.948;2023-12-07T05:00:28;6.00;;;2.40;;
82635;SDS011;72317;37.280;-121.948;2023-12-07T05:02:54;5.97;;;2.63;;
82635;SDS011;72317;37.280;-121.948;2023-12-07T05:05:21;7.28;;;2.42;;
82635;SDS011;72317;37.280;-121.948;2023-12-07T05:07:47;5.82;;;2.50;;
82635;SDS011;72317;37.280;-121.948;2023-12-07T05:10:13;7.53;;;2.70;;
82635;SDS011;72317;37.280;-121.948;2023-12-07T05:12:39;6.63;;;2.40;;
82635;SDS011;72317;37.280;-121.948;2023-12-07T05:15:06;7.20;;;2.17;;
82635;SDS011;72317;37.280;-121.948;2023-12-07T05:17:33;8.60;;;2.42;;
82635;SDS011;72317;37.280;-121.948;2023-12-07T05:19:59;5.63;;;2.17;;
82635;SDS011;72317;37.280;-121.948;2023-12-07T05:22:25;4.70;;;2.28;;
82635;SDS011;72317;37.280;-121.948;2023-12-07T05:24:52;6.13;;;2.10;;
82635;SDS011;72317;37.280;-121.948;2023-12-07T05:27:18;4.63;;;2.20;;
82635;SDS011;72317;37.280;-121.948;2023-12-07T05:29:44;5.20;;;2.28;;
82635;SDS011;72317;37.280;-121.948;2023-12-07T05:32:10;4.53;;;1.90;;
82635;SDS011;72317;37.280;-121.948;2023-12-07T05:34:37;5.28;;;2.15;;
82635;SDS011;72317;37.280;-121.948;2023-12-07T05:37:04;6.70;;;1.67;;
82635;SDS011;72317;37.280;-121.948;2023-12-07T05:39:30;5.75;;;1.73;;
82635;SDS011;72317;37.280;-121.948;2023-12-07T05:41:56;5.43;;;1.77;;
82635;SDS011;72317;37.280;-121.948;2023-12-07T05:44:22;6.93;;;2.00;;
82635;SDS011;72317;37.280;-121.948;2023-12-07T05:46:49;7.00;;;1.98;;
82635;SDS011;72317;37.280;-121.948;2023-12-07T05:49:15;5.28;;;1.60;;
82635;SDS011;72317;37.280;-121.948;2023-12-07T05:51:41;6.07;;;1.90;;
82635;SDS011;72317;37.280;-121.948;2023-12-07T05:54:07;5.97;;;1.50;;
82635;SDS011;72317;37.280;-121.948;2023-12-07T05:56:34;5.00;;;2.00;;
82635;SDS011;72317;37.280;-121.948;2023-12-07T05:59:00;6.82;;;1.50;;
82635;SDS011;72317;37.280;-121.948;2023-12-07T06:01:26;4.45;;;1.67;;
82635;SDS011;72317;37.280;-121.948;2023-12-07T06:03:52;6.25;;;1.88;;
82635;SDS011;72317;37.280;-121.948;2023-12-07T06:06:18;6.60;;;1.90;;
82635;SDS011;72317;37.280;-121.948;2023-12-07T06:08:46;4.25;;;2.05;;
82635;SDS011;72317;37.280;-121.948;2023-12-07T06:11:12;4.18;;;1.60;;
82635;SDS011;72317;37.280;-121.948;2023-12-07T06:13:39;7.57;;;1.73;;
82635;SDS011;72317;37.280;-121.948;2023-12-07T06:16:05;5.63;;;1.77;;
82635;SDS011;72317;37.280;-121.948;2023-12-07T06:18:31;7.00;;;1.65;;
82635;SDS011;72317;37.280;-121.948;2023-12-07T06:20:57;6.47;;;2.15;;
82635;SDS011;72317;37.280;-121.948;2023-12-07T06:23:23;6.03;;;2.00;;
82635;SDS011;72317;37.280;-121.948;2023-12-07T06:25:50;4.68;;;1.83;;
82635;SDS011;72317;37.280;-121.948;2023-12-07T06:28:16;6.60;;;1.95;;
82635;SDS011;72317;37.280;-121.948;2023-12-07T06:30:43;5.40;;;2.13;;
82635;SDS011;72317;37.280;-121.948;2023-12-07T06:33:10;4.55;;;1.83;;
82635;SDS011;72317;37.280;-121.948;2023-12-07T06:35:36;8.40;;;1.83;;
82635;SDS011;72317;37.280;-121.948;2023-12-07T06:38:02;5.97;;;1.70;;
82635;SDS011;72317;37.280;-121.948;2023-12-07T06:40:28;6.47;;;1.85;;
82635;SDS011;72317;37.280;-121.948;2023-12-07T06:42:54;4.63;;;1.50;;
82635;SDS011;72317;37.280;-121.948;2023-12-07T06:45:21;3.95;;;1.58;;
82635;SDS011;72317;37.280;-121.948;2023-12-07T06:47:47;6.95;;;2.15;;
82635;SDS011;72317;37.280;-121.948;2023-12-07T06:50:13;13.38;;;7.10;;
82635;SDS011;72317;37.280;-121.948;2023-12-07T06:52:39;5.35;;;2.25;;
82635;SDS011;72317;37.280;-121.948;2023-12-07T06:55:06;4.93;;;1.83;;
82635;SDS011;72317;37.280;-121.948;2023-12-07T06:57:32;7.22;;;2.20;;
82635;SDS011;72317;37.280;-121.948;2023-12-07T06:59:59;6.93;;;2.28;;
82635;SDS011;72317;37.280;-121.948;2023-12-07T07:02:26;5.40;;;2.30;;
82635;SDS011;72317;37.280;-121.948;2023-12-07T07:04:52;7.95;;;2.83;;
82635;SDS011;72317;37.280;-121.948;2023-12-07T07:07:18;8.80;;;2.92;;
82635;SDS011;72317;37.280;-121.948;2023-12-07T07:09:45;8.00;;;3.63;;
82635;SDS011;72317;37.280;-121.948;2023-12-07T07:12:11;9.75;;;3.92;;
82635;SDS011;72317;37.280;-121.948;2023-12-07T07:14:37;8.93;;;3.90;;
82635;SDS011;72317;37.280;-121.948;2023-12-07T07:17:04;12.18;;;4.10;;
82635;SDS011;72317;37.280;-121.948;2023-12-07T07:19:30;10.50;;;3.90;;
82635;SDS011;72317;37.280;-121.948;2023-12-07T07:21:56;12.05;;;3.63;;
82635;SDS011;72317;37.280;-121.948;2023-12-07T07:24:22;7.85;;;3.17;;
82635;SDS011;72317;37.280;-121.948;2023-12-07T07:26:49;8.98;;;3.33;;
82635;SDS011;72317;37.280;-121.948;2023-12-07T07:29:15;7.68;;;3.42;;
82635;SDS011;72317;37.280;-121.948;2023-12-07T07:31:41;7.65;;;3.30;;
82635;SDS011;72317;37.280;-121.948;2023-12-07T07:34:07;10.82;;;3.55;;
82635;SDS011;72317;37.280;-121.948;2023-12-07T07:36:33;9.13;;;3.08;;
82635;SDS011;72317;37.280;-121.948;2023-12-07T07:38:59;7.53;;;3.13;;
82635;SDS011;72317;37.280;-121.948;2023-12-07T07:41:25;10.48;;;3.38;;
82635;SDS011;72317;37.280;-121.948;2023-12-07T07:43:52;7.20;;;3.10;;
82635;SDS011;72317;37.280;-121.948;2023-12-07T07:46:18;9.25;;;3.08;;
82635;SDS011;72317;37.280;-121.948;2023-12-07T07:48:44;10.60;;;3.00;;
82635;SDS011;72317;37.280;-121.948;2023-12-07T07:51:10;11.00;;;3.33;;
82635;SDS011;72317;37.280;-121.948;2023-12-07T07:53:36;9.40;;;3.10;;
82635;SDS011;72317;37.280;-121.948;2023-12-07T07:56:02;7.32;;;2.90;;
82635;SDS011;72317;37.280;-121.948;2023-12-07T07:58:29;12.40;;;3.03;;
82635;SDS011;72317;37.280;-121.948;2023-12-07T08:00:55;7.85;;;2.33;;
82635;SDS011;72317;37.280;-121.948;2023-12-07T08:03:21;8.30;;;2.00;;
82635;SDS011;72317;37.280;-121.948;2023-12-07T08:05:47;8.52;;;2.00;;
82635;SDS011;72317;37.280;-121.948;2023-12-07T08:08:13;7.93;;;1.80;;
82635;SDS011;72317;37.280;-121.948;2023-12-07T08:10:39;6.32;;;1.60;;
82635;SDS011;72317;37.280;-121.948;2023-12-07T08:13:05;4.65;;;1.50;;
82635;SDS011;72317;37.280;-121.948;2023-12-07T08:15:33;5.03;;;1.38;;
82635;SDS011;72317;37.280;-121.948;2023-12-07T08:17:59;4.72;;;1.70;;
82635;SDS011;72317;37.280;-121.948;2023-12-07T08:20:26;3.72;;;1.33;;
82635;SDS011;72317;37.280;-121.948;2023-12-07T08:22:52;5.47;;;1.40;;
82635;SDS011;72317;37.280;-121.948;2023-12-07T08:25:18;5.22;;;1.35;;
82635;SDS011;72317;37.280;-121.948;2023-12-07T08:27:44;4.15;;;1.00;;
82635;SDS011;72317;37.280;-121.948;2023-12-07T08:30:11;5.65;;;1.30;;
82635;SDS011;72317;37.280;-121.948;2023-12-07T08:32:38;4.38;;;1.17;;
82635;SDS011;72317;37.280;-121.948;2023-12-07T08:35:04;5.97;;;1.30;;
82635;SDS011;72317;37.280;-121.948;2023-12-07T08:37:32;6.43;;;1.55;;
82635;SDS011;72317;37.280;-121.948;2023-12-07T08:39:58;4.88;;;1.10;;
82635;SDS011;72317;37.280;-121.948;2023-12-07T08:42:24;5.72;;;1.60;;
82635;SDS011;72317;37.280;-121.948;2023-12-07T08:44:52;6.40;;;1.50;;
82635;SDS011;72317;37.280;-121.948;2023-12-07T08:47:18;5.78;;;1.67;;
82635;SDS011;72317;37.280;-121.948;2023-12-07T08:49:45;5.30;;;1.30;;
82635;SDS011;72317;37.280;-121.948;2023-12-07T08:52:11;5.78;;;1.50;;
82635;SDS011;72317;37.280;-121.948;2023-12-07T08:54:37;5.75;;;1.40;;
82635;SDS011;72317;37.280;-121.948;2023-12-07T08:57:03;6.88;;;1.52;;
82635;SDS011;72317;37.280;-121.948;2023-12-07T08:59:29;4.85;;;1.48;;
82635;SDS011;72317;37.280;-121.948;2023-12-07T09:01:56;3.92;;;1.30;;
82635;SDS011;72317;37.280;-121.948;2023-12-07T09:04:22;4.97;;;1.50;;
82635;SDS011;72317;37.280;-121.948;2023-12-07T09:06:48;5.07;;;1.60;;
82635;SDS011;72317;37.280;-121.948;2023-12-07T09:09:14;7.78;;;1.70;;
82635;SDS011;72317;37.280;-121.948;2023-12-07T09:11:40;5.95;;;1.50;;
82635;SDS011;72317;37.280;-121.948;2023-12-07T09:14:07;6.53;;;1.40;;
82635;SDS011;72317;37.280;-121.948;2023-12-07T09:16:33;4.53;;;1.55;;
82635;SDS011;72317;37.280;-121.948;2023-12-07T09:19:00;5.15;;;1.73;;
82635;SDS011;72317;37.280;-121.948;2023-12-07T09:21:27;5.25;;;1.58;;
82635;SDS011;72317;37.280;-121.948;2023-12-07T09:23:53;4.10;;;1.35;;
82635;SDS011;72317;37.280;-121.948;2023-12-07T09:26:19;4.57;;;1.50;;
82635;SDS011;72317;37.280;-121.948;2023-12-07T09:28:46;4.28;;;1.30;;
82635;SDS011;72317;37.280;-121.948;2023-12-07T09:31:12;5.45;;;1.52;;
82635;SDS011;72317;37.280;-121.948;2023-12-07T09:33:38;4.28;;;1.40;;
82635;SDS011;72317;37.280;-121.948;2023-12-07T09:36:04;6.30;;;1.40;;
82635;SDS011;72317;37.280;-121.948;2023-12-07T09:38:35;4.85;;;1.88;;
82635;SDS011;72317;37.280;-121.948;2023-12-07T09:41:02;9.95;;;2.25;;
82635;SDS011;72317;37.280;-121.948;2023-12-07T09:43:29;6.18;;;1.52;;
82635;SDS011;72317;37.280;-121.948;2023-12-07T09:45:55;6.97;;;1.50;;
82635;SDS011;72317;37.280;-121.948;2023-12-07T09:48:23;8.85;;;1.70;;
82635;SDS011;72317;37.280;-121.948;2023-12-07T09:50:51;6.70;;;1.60;;
82635;SDS011;72317;37.280;-121.948;2023-12-07T09:53:20;6.32;;;1.48;;
82635;SDS011;72317;37.280;-121.948;2023-12-07T09:55:47;7.43;;;1.42;;
82635;SDS011;72317;37.280;-121.948;2023-12-07T09:58:13;6.05;;;1.27;;
82635;SDS011;72317;37.280;-121.948;2023-12-07T10:00:39;7.28;;;1.45;;
82635;SDS011;72317;37.280;-121.948;2023-12-07T10:03:06;4.57;;;1.27;;
82635;SDS011;72317;37.280;-121.948;2023-12-07T10:05:33;7.70;;;1.40;;
82635;SDS011;72317;37.280;-121.948;2023-12-07T10:08:00;4.53;;;1.33;;
82635;SDS011;72317;37.280;-121.948;2023-12-07T10:10:26;4.53;;;1.30;;
82635;SDS011;72317;37.280;-121.948;2023-12-07T10:12:56;5.10;;;1.30;;
82635;SDS011;72317;37.280;-121.948;2023-12-07T10:15:24;4.07;;;1.38;;
82635;SDS011;72317;37.280;-121.948;2023-12-07T10:17:51;5.40;;;1.13;;
82635;SDS011;72317;37.280;-121.948;2023-12-07T10:20:20;4.18;;;1.20;;
82635;SDS011;72317;37.280;-121.948;2023-12-07T10:23:06;5.00;;;1.50;;
82635;SDS011;72317;37.280;-121.948;2023-12-07T10:25:36;5.95;;;1.45;;
82635;SDS011;72317;37.280;-121.948;2023-12-07T10:28:09;2.95;;;1.08;;
82635;SDS011;72317;37.280;-121.948;2023-12-07T10:30:42;4.22;;;1.30;;
82635;SDS011;72317;37.280;-121.948;2023-12-07T10:33:09;2.97;;;1.30;;
82635;SDS011;72317;37.280;-121.948;2023-12-07T10:35:44;6.35;;;1.45;;
82635;SDS011;72317;37.280;-121.948;2023-12-07T10:38:10;6.63;;;1.52;;
82635;SDS011;72317;37.280;-121.948;2023-12-07T10:40:39;4.45;;;1.27;;
82635;SDS011;72317;37.280;-121.948;2023-12-07T10:43:07;7.10;;;1.75;;
82635;SDS011;72317;37.280;-121.948;2023-12-07T10:45:34;5.15;;;1.17;;
82635;SDS011;72317;37.280;-121.948;2023-12-07T10:48:05;6.03;;;1.58;;
82635;SDS011;72317;37.280;-121.948;2023-12-07T10:50:37;10.40;;;1.90;;
82635;SDS011;72317;37.280;-121.948;2023-12-07T10:53:09;7.80;;;1.63;;
82635;SDS011;72317;37.280;-121.948;2023-12-07T10:55:57;7.38;;;1.70;;
82635;SDS011;72317;37.280;-121.948;2023-12-07T10:58:26;7.60;;;1.60;;
82635;SDS011;72317;37.280;-121.948;2023-12-07T11:00:53;6.28;;;1.67;;
82635;SDS011;72317;37.280;-121.948;2023-12-07T11:03:19;5.82;;;1.55;;
82635;SDS011;72317;37.280;-121.948;2023-12-07T11:05:47;7.10;;;1.17;;
82635;SDS011;72317;37.280;-121.948;2023-12-07T11:13:52;5.93;;;1.50;;
82635;SDS011;72317;37.280;-121.948;2023-12-07T11:16:31;4.05;;;1.45;;
82635;SDS011;72317;37.280;-121.948;2023-12-07T11:19:01;5.55;;;1.65;;
82635;SDS011;72317;37.280;-121.948;2023-12-07T11:21:27;4.40;;;1.35;;
82635;SDS011;72317;37.280;-121.948;2023-12-07T11:23:53;5.75;;;1.52;;
82635;SDS011;72317;37.280;-121.948;2023-12-07T11:26:20;5.80;;;1.60;;
82635;SDS011;72317;37.280;-121.948;2023-12-07T11:28:50;7.82;;;1.50;;
82635;SDS011;72317;37.280;-121.948;2023-12-07T11:31:16;6.38;;;1.60;;
82635;SDS011;72317;37.280;-121.948;2023-12-07T11:33:43;5.07;;;1.20;;
82635;SDS011;72317;37.280;-121.948;2023-12-07T11:36:11;3.38;;;1.10;;
82635;SDS011;72317;37.280;-121.948;2023-12-07T11:41:35;7.68;;;1.60;;
82635;SDS011;72317;37.280;-121.948;2023-12-07T11:44:09;5.28;;;1.92;;
82635;SDS011;72317;37.280;-121.948;2023-12-07T11:46:37;5.82;;;1.63;;
82635;SDS011;72317;37.280;-121.948;2023-12-07T11:49:03;8.63;;;1.73;;
82635;SDS011;72317;37.280;-121.948;2023-12-07T11:51:30;6.93;;;1.77;;
82635;SDS011;72317;37.280;-121.948;2023-12-07T11:53:56;9.20;;;1.88;;
82635;SDS011;72317;37.280;-121.948;2023-12-07T11:56:23;6.45;;;1.52;;
82635;SDS011;72317;37.280;-121.948;2023-12-07T11:58:49;6.65;;;1.75;;
82635;SDS011;72317;37.280;-121.948;2023-12-07T12:01:16;8.48;;;1.75;;
82635;SDS011;72317;37.280;-121.948;2023-12-07T12:03:42;11.15;;;1.95;;
82635;SDS011;72317;37.280;-121.948;2023-12-07T12:06:09;8.32;;;1.80;;
82635;SDS011;72317;37.280;-121.948;2023-12-07T12:08:37;7.57;;;1.98;;
82635;SDS011;72317;37.280;-121.948;2023-12-07T12:11:05;6.30;;;1.55;;
82635;SDS011;72317;37.280;-121.948;2023-12-07T12:13:35;6.15;;;1.80;;
82635;SDS011;72317;37.280;-121.948;2023-12-07T12:16:02;4.53;;;1.90;;
82635;SDS011;72317;37.280;-121.948;2023-12-07T12:18:29;8.63;;;2.75;;
82635;SDS011;72317;37.280;-121.948;2023-12-07T12:20:55;5.78;;;2.05;;
82635;SDS011;72317;37.280;-121.948;2023-12-07T12:23:24;8.60;;;2.28;;
82635;SDS011;72317;37.280;-121.948;2023-12-07T12:25:50;8.82;;;2.17;;
82635;SDS011;72317;37.280;-121.948;2023-12-07T12:28:17;6.72;;;1.80;;
82635;SDS011;72317;37.280;-121.948;2023-12-07T12:30:47;9.00;;;2.47;;
82635;SDS011;72317;37.280;-121.948;2023-12-07T12:33:13;6.60;;;2.05;;
82635;SDS011;72317;37.280;-121.948;2023-12-07T12:35:40;6.35;;;1.75;;
82635;SDS011;72317;37.280;-121.948;2023-12-07T12:38:10;8.32;;;2.10;;
82635;SDS011;72317;37.280;-121.948;2023-12-07T12:40:37;6.43;;;1.80;;
82635;SDS011;72317;37.280;-121.948;2023-12-07T12:43:04;5.10;;;1.98;;
82635;SDS011;72317;37.280;-121.948;2023-12-07T12:45:31;4.68;;;1.83;;
82635;SDS011;72317;37.280;-121.948;2023-12-07T12:47:58;9.07;;;2.38;;
82635;SDS011;72317;37.280;-121.948;2023-12-07T12:50:34;6.32;;;2.20;;
82635;SDS011;72317;37.280;-121.948;2023-12-07T12:53:05;7.47;;;2.60;;
82635;SDS011;72317;37.280;-121.948;2023-12-07T12:55:39;9.85;;;2.15;;
82635;SDS011;72317;37.280;-121.948;2023-12-07T12:58:07;6.90;;;2.35;;
82635;SDS011;72317;37.280;-121.948;2023-12-07T13:00:34;6.50;;;2.30;;
82635;SDS011;72317;37.280;-121.948;2023-12-07T13:03:04;5.40;;;1.95;;
82635;SDS011;72317;37.280;-121.948;2023-12-07T13:05:31;6.97;;;2.00;;
82635;SDS011;72317;37.280;-121.948;2023-12-07T13:07:59;5.68;;;1.73;;
82635;SDS011;72317;37.280;-121.948;2023-12-07T13:10:26;6.88;;;2.00;;
82635;SDS011;72317;37.280;-121.948;2023-12-07T13:12:52;6.28;;;1.83;;
82635;SDS011;72317;37.280;-121.948;2023-12-07T13:15:19;7.90;;;2.15;;
82635;SDS011;72317;37.280;-121.948;2023-12-07T13:17:45;4.65;;;2.10;;
82635;SDS011;72317;37.280;-121.948;2023-12-07T13:20:11;6.30;;;1.85;;
82635;SDS011;72317;37.280;-121.948;2023-12-07T13:22:40;7.30;;;1.60;;
82635;SDS011;72317;37.280;-121.948;2023-12-07T13:25:09;8.27;;;1.80;;
82635;SDS011;72317;37.280;-121.948;2023-12-07T13:27:37;4.18;;;1.38;;
82635;SDS011;72317;37.280;-121.948;2023-12-07T13:30:03;4.93;;;1.40;;
82635;SDS011;72317;37.280;-121.948;2023-12-07T13:32:34;9.02;;;1.90;;
82635;SDS011;72317;37.280;-121.948;2023-12-07T13:35:02;8.15;;;1.33;;
82635;SDS011;72317;37.280;-121.948;2023-12-07T13:37:30;5.75;;;1.20;;
82635;SDS011;72317;37.280;-121.948;2023-12-07T13:39:57;5.05;;;1.38;;
82635;SDS011;72317;37.280;-121.948;2023-12-07T13:42:25;5.13;;;1.70;;
82635;SDS011;72317;37.280;-121.948;2023-12-07T13:44:56;2.75;;;1.20;;
82635;SDS011;72317;37.280;-121.948;2023-12-07T13:47:26;5.82;;;1.60;;
82635;SDS011;72317;37.280;-121.948;2023-12-07T13:50:01;3.70;;;1.40;;
82635;SDS011;72317;37.280;-121.948;2023-12-07T13:52:29;6.85;;;1.50;;
82635;SDS011;72317;37.280;-121.948;2023-12-07T13:54:56;10.23;;;1.75;;
82635;SDS011;72317;37.280;-121.948;2023-12-07T13:57:22;4.50;;;1.25;;
82635;SDS011;72317;37.280;-121.948;2023-12-07T13:59:55;5.47;;;1.48;;
82635;SDS011;72317;37.280;-121.948;2023-12-07T14:02:21;7.43;;;1.40;;
82635;SDS011;72317;37.280;-121.948;2023-12-07T14:04:48;10.00;;;2.05;;
82635;SDS011;72317;37.280;-121.948;2023-12-07T14:07:15;6.22;;;2.00;;
82635;SDS011;72317;37.280;-121.948;2023-12-07T14:09:43;5.50;;;2.83;;
82635;SDS011;72317;37.280;-121.948;2023-12-07T14:12:11;6.32;;;2.75;;
82635;SDS011;72317;37.280;-121.948;2023-12-07T14:14:40;7.40;;;2.40;;
82635;SDS011;72317;37.280;-121.948;2023-12-07T14:17:06;7.20;;;2.80;;